EDE weather

Northeastern Regional Airport
Edenton, North Carolina, United States

Public forecast

Using degrees Fahrenheit for public forecast. Weather courtesy of forecast.io.

METAR (pilot weather report)

Retrieved 2019/04/23 20:20 UTC (0 seconds ago):

KEDE 232020Z AUTO 24003KT 10SM CLR 27/12 A2998 RMK AO2 T02680118

TAF (pilot weather forecast)

Closest forecast is Elizabeth City Regional Airport & Coast Guard Air Station, 23.6 nm (43.7 km) NE. Retrieved 2019/04/23 18:33 UTC (2 hours ago):

TAF KECG 231729Z 2318/2418 23006KT P6SM SKC FM232300 18009KT P6SM SKC FM241400 27008KT P6SM SKC